createdAt,value
2018-10-17T00:00:14.790Z,8.20
2018-10-17T00:02:43.542Z,7.23
2018-10-17T00:05:12.128Z,7.37
2018-10-17T00:07:40.510Z,7.87
2018-10-17T00:10:10.206Z,6.87
2018-10-17T00:12:39.033Z,7.73
2018-10-17T00:15:08.189Z,8.13
2018-10-17T00:17:36.739Z,7.03
2018-10-17T00:20:05.887Z,7.20
2018-10-17T00:22:34.469Z,7.57
2018-10-17T00:25:02.986Z,8.23
2018-10-17T00:27:31.537Z,6.80
2018-10-17T00:30:00.050Z,7.67
2018-10-17T00:32:28.537Z,7.17
2018-10-17T00:34:56.997Z,8.17
2018-10-17T00:37:25.525Z,7.33
2018-10-17T00:39:53.976Z,7.20
2018-10-17T00:42:22.646Z,7.33
2018-10-17T00:44:51.089Z,7.10
2018-10-17T00:47:19.544Z,7.60
2018-10-17T00:49:48.023Z,8.07
2018-10-17T00:52:16.453Z,7.77
2018-10-17T00:54:44.862Z,7.20
2018-10-17T00:57:13.431Z,6.40
2018-10-17T00:59:41.809Z,7.30
2018-10-17T01:02:10.235Z,7.47
2018-10-17T01:04:38.724Z,7.37
2018-10-17T01:07:07.198Z,7.13
2018-10-17T01:09:35.737Z,7.70
2018-10-17T01:12:04.221Z,7.50
2018-10-17T01:14:32.797Z,7.30
2018-10-17T01:17:01.256Z,8.13
2018-10-17T01:19:29.702Z,7.30
2018-10-17T01:21:58.207Z,6.90
2018-10-17T01:24:26.621Z,7.37
2018-10-17T01:26:55.050Z,7.53
2018-10-17T01:29:23.449Z,7.10
2018-10-17T01:31:51.904Z,7.30
2018-10-17T01:34:20.525Z,6.80
2018-10-17T01:36:48.949Z,8.13
2018-10-17T01:39:17.361Z,7.00
2018-10-17T01:41:45.797Z,7.10
2018-10-17T01:44:14.245Z,7.23
2018-10-17T01:46:42.742Z,7.30
2018-10-17T01:49:11.188Z,7.33
2018-10-17T01:51:39.633Z,7.07
2018-10-17T01:54:08.073Z,7.03
2018-10-17T01:56:36.649Z,7.33
2018-10-17T01:59:05.466Z,7.23
2018-10-17T02:01:33.940Z,7.73
2018-10-17T02:04:02.369Z,7.70
2018-10-17T02:06:30.927Z,7.00
2018-10-17T02:08:59.394Z,7.17
2018-10-17T02:11:27.933Z,7.07
2018-10-17T02:13:56.351Z,7.33
2018-10-17T02:16:24.917Z,7.30
2018-10-17T02:18:53.341Z,7.13
2018-10-17T02:21:21.950Z,7.20
2018-10-17T02:23:50.374Z,7.90
2018-10-17T02:26:18.874Z,7.10
2018-10-17T02:28:47.301Z,6.87
2018-10-17T02:31:15.820Z,7.83
2018-10-17T02:33:44.226Z,7.50
2018-10-17T02:36:12.678Z,7.00
2018-10-17T02:38:41.142Z,7.17
2018-10-17T02:41:09.640Z,7.03
2018-10-17T02:43:38.104Z,7.70
2018-10-17T02:46:07.048Z,8.10
2018-10-17T02:48:35.598Z,6.97
2018-10-17T02:51:04.037Z,6.60
2018-10-17T02:53:32.554Z,6.83
2018-10-17T02:56:01.097Z,7.30
2018-10-17T02:58:29.521Z,6.90
2018-10-17T03:00:58.113Z,6.40
2018-10-17T03:03:26.618Z,6.93
2018-10-17T03:05:55.185Z,6.30
2018-10-17T03:08:23.853Z,7.70
2018-10-17T03:10:52.355Z,6.67
2018-10-17T03:13:20.953Z,7.20
2018-10-17T03:15:49.410Z,6.93
2018-10-17T03:18:17.917Z,7.33
2018-10-17T03:20:46.446Z,6.80
2018-10-17T03:23:14.919Z,7.90
2018-10-17T03:25:43.487Z,7.77
2018-10-17T03:28:11.952Z,7.30
2018-10-17T03:30:40.453Z,7.10
2018-10-17T03:33:08.970Z,7.10
2018-10-17T03:35:37.508Z,7.50
2018-10-17T03:38:06.111Z,7.07
2018-10-17T03:40:34.614Z,7.43
2018-10-17T03:43:03.555Z,7.00
2018-10-17T03:45:32.163Z,7.33
2018-10-17T03:48:00.709Z,8.33
2018-10-17T03:50:29.171Z,8.03
2018-10-17T03:52:57.613Z,7.63
2018-10-17T03:55:26.066Z,7.63
2018-10-17T03:57:54.568Z,7.63
2018-10-17T04:00:23.052Z,7.23
2018-10-17T04:02:51.558Z,7.30
2018-10-17T04:05:20.176Z,7.13
2018-10-17T04:07:48.581Z,6.43
2018-10-17T04:10:17.047Z,7.90
2018-10-17T04:12:45.505Z,7.30
2018-10-17T04:15:13.964Z,7.30
2018-10-17T04:17:42.414Z,7.80
2018-10-17T04:20:10.875Z,7.40
2018-10-17T04:22:43.659Z,7.40
2018-10-17T04:25:12.159Z,7.37
2018-10-17T04:27:40.661Z,7.20
2018-10-17T04:30:09.206Z,7.37
2018-10-17T04:32:37.677Z,7.67
2018-10-17T04:35:06.398Z,7.30
2018-10-17T04:37:34.895Z,7.40
2018-10-17T04:40:03.385Z,7.37
2018-10-17T04:42:31.836Z,7.73
2018-10-17T04:45:00.306Z,6.67
2018-10-17T04:47:28.799Z,7.27
2018-10-17T04:49:57.235Z,8.13
2018-10-17T04:52:25.738Z,7.27
2018-10-17T04:54:54.281Z,7.43
2018-10-17T04:57:22.913Z,7.23
2018-10-17T04:59:51.350Z,7.87
2018-10-17T05:02:19.904Z,7.53
2018-10-17T05:04:48.346Z,7.40
2018-10-17T05:07:16.915Z,7.40
2018-10-17T05:09:45.325Z,7.87
2018-10-17T05:12:13.805Z,6.90
2018-10-17T05:14:42.378Z,7.63
2018-10-17T05:17:10.891Z,8.10
2018-10-17T05:19:39.338Z,7.53
2018-10-17T05:22:08.011Z,7.30
2018-10-17T05:24:36.485Z,7.60
2018-10-17T05:27:04.990Z,7.07
2018-10-17T05:29:33.454Z,7.93
2018-10-17T05:32:01.925Z,8.27
2018-10-17T05:34:30.369Z,8.33
2018-10-17T05:36:58.861Z,8.00
2018-10-17T05:39:27.385Z,8.30
2018-10-17T05:41:55.911Z,7.80
2018-10-17T05:44:24.454Z,8.60
2018-10-17T05:46:52.901Z,7.63
2018-10-17T05:49:21.391Z,7.60
2018-10-17T05:51:49.933Z,8.03
2018-10-17T05:54:18.382Z,7.13
2018-10-17T05:56:46.841Z,7.90
2018-10-17T05:59:15.445Z,7.53
2018-10-17T06:01:43.934Z,8.50
2018-10-17T06:04:12.302Z,7.53
2018-10-17T06:06:40.762Z,8.07
2018-10-17T06:09:10.962Z,8.00
2018-10-17T06:11:39.410Z,7.50
2018-10-17T06:14:09.329Z,7.93
2018-10-17T06:16:37.837Z,8.33
2018-10-17T06:19:06.351Z,7.83
2018-10-17T06:21:34.859Z,8.37
2018-10-17T06:24:03.380Z,7.80
2018-10-17T06:26:31.849Z,8.37
2018-10-17T06:29:00.319Z,7.60
2018-10-17T06:31:29.107Z,8.43
2018-10-17T06:33:57.743Z,7.87
2018-10-17T06:36:26.354Z,8.30
2018-10-17T06:38:54.797Z,7.70
2018-10-17T06:41:23.240Z,8.23
2018-10-17T06:43:51.741Z,7.93
2018-10-17T06:46:20.222Z,8.00
2018-10-17T06:48:48.644Z,8.43
2018-10-17T06:51:17.162Z,7.67
2018-10-17T06:53:45.606Z,8.23
2018-10-17T06:56:14.049Z,7.57
2018-10-17T06:58:42.583Z,8.13
2018-10-17T07:01:11.074Z,7.53
2018-10-17T07:03:39.449Z,8.20
2018-10-17T07:06:07.870Z,8.63
2018-10-17T07:08:36.510Z,8.70
2018-10-17T07:11:05.381Z,7.97
2018-10-17T07:13:33.808Z,8.27
2018-10-17T07:16:02.227Z,7.63
2018-10-17T07:18:30.686Z,7.43
2018-10-17T07:20:59.101Z,7.23
2018-10-17T07:23:27.617Z,7.10
2018-10-17T07:25:56.019Z,7.03
2018-10-17T07:28:24.573Z,7.60
2018-10-17T07:30:53.111Z,7.57
2018-10-17T07:33:21.724Z,7.67
2018-10-17T07:35:50.405Z,6.53
2018-10-17T07:38:18.769Z,6.93
2018-10-17T07:40:47.226Z,7.50
2018-10-17T07:43:15.626Z,6.57
2018-10-17T07:45:44.127Z,6.50
2018-10-17T07:48:12.688Z,6.93
2018-10-17T07:50:41.095Z,6.77
2018-10-17T07:53:09.563Z,7.43
2018-10-17T07:55:38.007Z,7.03
2018-10-17T07:58:06.787Z,6.57
2018-10-17T08:00:35.350Z,7.13
2018-10-17T08:03:03.771Z,5.83
2018-10-17T08:05:32.274Z,6.03
2018-10-17T08:08:00.726Z,5.93
2018-10-17T08:10:29.192Z,6.37
2018-10-17T08:12:57.678Z,6.27
2018-10-17T08:15:26.150Z,6.63
2018-10-17T08:17:54.580Z,5.80
2018-10-17T08:20:23.142Z,5.93
2018-10-17T08:22:51.552Z,4.63
2018-10-17T08:25:19.998Z,4.67
2018-10-17T08:27:48.418Z,4.33
2018-10-17T08:30:17.043Z,5.07
2018-10-17T08:32:45.343Z,4.17
2018-10-17T08:35:13.833Z,4.87
2018-10-17T08:37:42.643Z,4.40
2018-10-17T08:40:10.702Z,3.70
2018-10-17T08:42:39.182Z,4.50
2018-10-17T08:45:07.740Z,4.60
2018-10-17T08:47:36.189Z,4.13
2018-10-17T08:50:04.705Z,4.60
2018-10-17T08:52:33.182Z,5.07
2018-10-17T08:55:01.637Z,3.90
2018-10-17T08:57:30.053Z,5.30
2018-10-17T08:59:58.491Z,4.13
2018-10-17T09:02:26.899Z,4.47
2018-10-17T09:04:55.309Z,4.63
2018-10-17T09:07:23.741Z,4.30
2018-10-17T09:09:52.178Z,4.67
2018-10-17T09:12:20.881Z,4.33
2018-10-17T09:14:49.277Z,4.70
2018-10-17T09:17:17.720Z,5.23
2018-10-17T09:19:46.286Z,4.93
2018-10-17T09:22:15.033Z,5.40
2018-10-17T09:24:43.119Z,4.37
2018-10-17T09:27:11.568Z,4.33
2018-10-17T09:29:40.089Z,4.47
2018-10-17T09:32:08.551Z,5.27
2018-10-17T09:34:37.081Z,5.33
2018-10-17T09:37:05.652Z,5.03
2018-10-17T09:39:34.237Z,5.57
2018-10-17T09:42:02.736Z,5.20
2018-10-17T09:44:31.101Z,4.62
2018-10-17T09:46:59.541Z,4.85
2018-10-17T09:49:27.992Z,5.00
2018-10-17T09:51:56.540Z,4.83
2018-10-17T09:54:25.054Z,5.35
2018-10-17T09:56:53.494Z,5.15
2018-10-17T09:59:21.943Z,4.08
2018-10-17T10:01:52.076Z,4.40
2018-10-17T10:04:20.969Z,4.80
2018-10-17T10:06:49.625Z,5.50
2018-10-17T10:09:18.063Z,4.55
2018-10-17T10:11:46.517Z,4.85
2018-10-17T10:14:14.916Z,5.12
2018-10-17T10:16:43.378Z,4.25
2018-10-17T10:19:11.826Z,5.10
2018-10-17T10:21:40.244Z,5.05
2018-10-17T10:24:08.775Z,4.50
2018-10-17T10:26:37.201Z,4.85
2018-10-17T10:29:05.839Z,4.95
2018-10-17T10:31:34.353Z,4.62
2018-10-17T10:34:03.034Z,5.28
2018-10-17T10:36:31.472Z,4.78
2018-10-17T10:38:59.902Z,4.35
2018-10-17T10:41:28.314Z,4.58
2018-10-17T10:43:56.757Z,5.05
2018-10-17T10:46:25.315Z,4.12
2018-10-17T10:48:53.785Z,4.90
2018-10-17T10:51:22.287Z,4.47
2018-10-17T10:53:50.845Z,4.37
2018-10-17T10:56:19.353Z,4.20
2018-10-17T10:58:47.821Z,4.62
2018-10-17T11:01:16.242Z,4.50
2018-10-17T11:03:44.759Z,4.55
2018-10-17T11:06:13.229Z,4.72
2018-10-17T11:08:41.661Z,3.67
2018-10-17T11:11:10.182Z,4.25
2018-10-17T11:13:38.626Z,4.20
2018-10-17T11:16:07.085Z,4.12
2018-10-17T11:18:35.573Z,4.40
2018-10-17T11:21:04.054Z,4.03
2018-10-17T11:23:32.522Z,4.45
2018-10-17T11:26:00.957Z,4.08
2018-10-17T11:28:29.401Z,4.05
2018-10-17T11:30:57.816Z,3.90
2018-10-17T11:33:26.266Z,3.47
2018-10-17T11:35:54.824Z,3.55
2018-10-17T11:38:23.603Z,3.80
2018-10-17T11:40:52.090Z,4.10
2018-10-17T11:43:20.626Z,3.95
2018-10-17T11:45:49.050Z,3.95
2018-10-17T11:48:17.697Z,3.47
2018-10-17T11:50:46.124Z,3.75
2018-10-17T11:53:14.774Z,3.22
2018-10-17T11:55:43.109Z,3.70
2018-10-17T11:58:11.593Z,3.42
2018-10-17T12:00:40.040Z,4.20
2018-10-17T12:03:08.566Z,3.47
2018-10-17T12:05:37.185Z,3.75
2018-10-17T12:08:05.611Z,3.47
2018-10-17T12:10:34.054Z,3.52
2018-10-17T12:13:02.590Z,3.40
2018-10-17T12:15:31.074Z,3.77
2018-10-17T12:17:59.657Z,3.87
2018-10-17T12:20:28.078Z,4.00
2018-10-17T12:22:56.505Z,3.30
2018-10-17T12:25:24.972Z,3.70
2018-10-17T12:27:53.467Z,3.60
2018-10-17T12:30:22.087Z,3.45
2018-10-17T12:32:50.525Z,4.05
2018-10-17T12:35:19.049Z,4.15
2018-10-17T12:37:47.458Z,3.70
2018-10-17T12:40:15.997Z,3.47
2018-10-17T12:42:44.371Z,3.27
2018-10-17T12:45:12.916Z,3.42
2018-10-17T12:47:41.344Z,3.25
2018-10-17T12:50:10.149Z,3.27
2018-10-17T12:52:38.604Z,3.30
2018-10-17T12:55:08.060Z,2.83
2018-10-17T12:57:36.539Z,3.10
2018-10-17T13:00:05.665Z,3.12
2018-10-17T13:02:34.110Z,3.08
2018-10-17T13:05:02.542Z,2.98
2018-10-17T13:07:31.040Z,3.47
2018-10-17T13:09:59.454Z,3.10
2018-10-17T13:12:27.873Z,3.40
2018-10-17T13:14:56.294Z,3.17
2018-10-17T13:17:24.894Z,3.22
2018-10-17T13:19:53.298Z,3.12
2018-10-17T13:22:21.724Z,3.10
2018-10-17T13:24:50.217Z,2.95
2018-10-17T13:27:18.691Z,2.85
2018-10-17T13:29:47.106Z,2.55
2018-10-17T13:32:15.588Z,3.67
2018-10-17T13:34:44.020Z,3.60
2018-10-17T13:37:12.553Z,3.33
2018-10-17T13:39:40.923Z,3.40
2018-10-17T13:42:09.374Z,3.27
2018-10-17T13:44:37.781Z,2.65
2018-10-17T13:47:07.038Z,3.55
2018-10-17T13:49:35.968Z,3.17
2018-10-17T13:52:04.468Z,3.50
2018-10-17T13:54:32.969Z,3.45
2018-10-17T13:57:01.381Z,3.20
2018-10-17T13:59:29.875Z,3.35
2018-10-17T14:01:58.302Z,2.95
2018-10-17T14:04:26.745Z,2.92
2018-10-17T14:06:55.197Z,3.10
2018-10-17T14:09:23.746Z,3.10
2018-10-17T14:11:52.264Z,3.40
2018-10-17T14:14:20.771Z,2.98
2018-10-17T14:16:49.181Z,3.37
2018-10-17T14:19:17.690Z,3.20
2018-10-17T14:21:46.089Z,2.90
2018-10-17T14:24:14.630Z,3.22
2018-10-17T14:26:42.987Z,3.87
2018-10-17T14:29:11.441Z,3.47
2018-10-17T14:31:39.868Z,3.47
2018-10-17T14:34:08.287Z,3.47
2018-10-17T14:36:36.772Z,3.62
2018-10-17T14:39:08.983Z,3.75
2018-10-17T14:41:37.298Z,3.50
2018-10-17T14:44:05.840Z,3.47
2018-10-17T14:46:34.312Z,4.47
2018-10-17T14:49:03.057Z,3.80
2018-10-17T14:51:31.685Z,3.85
2018-10-17T14:54:00.218Z,4.05
2018-10-17T14:56:28.790Z,4.58
2018-10-17T14:58:57.288Z,4.35
2018-10-17T15:01:25.818Z,3.45
2018-10-17T15:03:54.296Z,4.00
2018-10-17T15:06:22.801Z,4.15
2018-10-17T15:08:51.515Z,4.37
2018-10-17T15:11:20.191Z,4.10
2018-10-17T15:13:48.689Z,3.98
2018-10-17T15:16:17.157Z,3.92
2018-10-17T15:18:45.908Z,3.98
2018-10-17T15:21:14.440Z,3.85
2018-10-17T15:23:42.970Z,4.47
2018-10-17T15:26:11.426Z,4.40
2018-10-17T15:28:39.905Z,3.58
2018-10-17T15:31:08.486Z,4.15
2018-10-17T15:33:37.305Z,4.08
2018-10-17T15:36:06.045Z,4.22
2018-10-17T15:38:34.677Z,4.40
2018-10-17T15:41:03.269Z,4.35
2018-10-17T15:43:31.930Z,4.55
2018-10-17T15:46:00.550Z,3.98
2018-10-17T15:48:29.090Z,4.03
2018-10-17T15:50:57.634Z,3.90
2018-10-17T15:53:26.217Z,4.62
2018-10-17T15:55:54.735Z,4.25
2018-10-17T15:58:23.190Z,4.78
2018-10-17T16:00:51.900Z,3.35
2018-10-17T16:03:20.405Z,4.42
2018-10-17T16:05:49.045Z,3.33
2018-10-17T16:08:17.510Z,3.72
2018-10-17T16:10:45.889Z,4.50
2018-10-17T16:13:14.327Z,3.60
2018-10-17T16:15:42.823Z,3.52
2018-10-17T16:18:12.268Z,3.72
2018-10-17T16:20:40.929Z,3.65
2018-10-17T16:23:09.704Z,3.72
2018-10-17T16:25:38.113Z,4.42
2018-10-17T16:28:06.813Z,3.80
2018-10-17T16:30:35.257Z,4.40
2018-10-17T16:33:03.903Z,3.22
2018-10-17T16:35:32.337Z,4.15
2018-10-17T16:38:00.917Z,3.58
2018-10-17T16:40:29.329Z,4.03
2018-10-17T16:42:57.858Z,4.45
2018-10-17T16:45:26.333Z,3.67
2018-10-17T16:47:54.907Z,4.17
2018-10-17T16:50:23.620Z,3.70
2018-10-17T16:52:52.005Z,3.50
2018-10-17T16:55:20.570Z,4.37
2018-10-17T16:57:49.080Z,3.80
2018-10-17T17:00:17.680Z,3.77
2018-10-17T17:02:46.065Z,4.20
2018-10-17T17:05:15.260Z,3.42
2018-10-17T17:07:43.892Z,3.92
2018-10-17T17:10:13.557Z,4.12
2018-10-17T17:12:41.982Z,3.95
2018-10-17T17:15:10.944Z,4.53
2018-10-17T17:17:39.721Z,4.35
2018-10-17T17:20:10.160Z,4.58
2018-10-17T17:22:39.437Z,4.70
2018-10-17T17:25:08.023Z,4.60
2018-10-17T17:27:36.752Z,4.90
2018-10-17T17:30:09.691Z,3.67
2018-10-17T17:32:38.077Z,3.52
2018-10-17T17:35:06.725Z,3.67
2018-10-17T17:37:35.283Z,3.75
2018-10-17T17:40:03.805Z,3.90
2018-10-17T17:42:32.461Z,4.33
2018-10-17T17:45:00.858Z,3.92
2018-10-17T17:47:29.417Z,4.47
2018-10-17T17:49:57.805Z,3.67
2018-10-17T17:52:26.581Z,3.83
2018-10-17T17:54:54.974Z,4.72
2018-10-17T17:57:24.079Z,5.08
2018-10-17T17:59:52.465Z,3.87
2018-10-17T18:02:21.289Z,4.55
2018-10-17T18:04:49.697Z,4.72
2018-10-17T18:07:18.382Z,4.03
2018-10-17T18:09:46.798Z,4.28
2018-10-17T18:12:15.323Z,4.28
2018-10-17T18:14:43.873Z,5.25
2018-10-17T18:17:12.778Z,4.83
2018-10-17T18:19:41.502Z,4.92
2018-10-17T18:22:09.979Z,4.10
2018-10-17T18:24:38.369Z,4.93
2018-10-17T18:27:07.016Z,4.42
2018-10-17T18:29:35.460Z,4.20
2018-10-17T18:32:03.921Z,4.97
2018-10-17T18:34:33.280Z,4.40
2018-10-17T18:37:02.697Z,3.62
2018-10-17T18:39:31.138Z,4.60
2018-10-17T18:41:59.566Z,4.83
2018-10-17T18:44:28.138Z,5.50
2018-10-17T18:46:57.494Z,4.87
2018-10-17T18:49:26.041Z,4.93
2018-10-17T18:51:54.457Z,6.07
2018-10-17T18:54:23.230Z,5.33
2018-10-17T18:56:51.828Z,6.60
2018-10-17T18:59:20.209Z,5.57
2018-10-17T19:01:48.641Z,6.33
2018-10-17T19:04:17.065Z,6.20
2018-10-17T19:06:45.515Z,5.50
2018-10-17T19:09:14.881Z,5.43
2018-10-17T19:11:43.265Z,6.42
2018-10-17T19:14:11.689Z,5.97
2018-10-17T19:16:40.177Z,5.67
2018-10-17T19:19:08.615Z,6.90
2018-10-17T19:21:37.296Z,6.87
2018-10-17T19:24:06.297Z,6.30
2018-10-17T19:26:35.116Z,7.23
2018-10-17T19:29:03.646Z,6.97
2018-10-17T19:31:32.065Z,7.50
2018-10-17T19:34:00.490Z,6.87
2018-10-17T19:36:28.917Z,7.07
2018-10-17T19:38:57.363Z,7.47
2018-10-17T19:41:25.979Z,7.27
2018-10-17T19:43:54.434Z,7.97
2018-10-17T19:46:23.005Z,7.53
2018-10-17T19:48:51.634Z,7.53
2018-10-17T19:51:20.021Z,7.17
2018-10-17T19:53:48.437Z,7.53
2018-10-17T19:56:16.869Z,7.67
2018-10-17T19:58:45.308Z,6.90
2018-10-17T20:01:13.811Z,6.87
2018-10-17T20:03:42.267Z,7.57
2018-10-17T20:06:10.670Z,7.37
2018-10-17T20:08:39.106Z,7.10
2018-10-17T20:11:07.637Z,7.00
2018-10-17T20:13:36.116Z,6.67
2018-10-17T20:16:04.533Z,6.23
2018-10-17T20:18:32.986Z,6.93
2018-10-17T20:21:01.482Z,6.70
2018-10-17T20:23:29.965Z,6.70
2018-10-17T20:25:59.341Z,6.37
2018-10-17T20:28:27.817Z,6.53
2018-10-17T20:30:56.322Z,7.17
2018-10-17T20:33:24.969Z,6.80
2018-10-17T20:35:53.464Z,7.53
2018-10-17T20:38:22.020Z,6.87
2018-10-17T20:40:50.386Z,6.97
2018-10-17T20:43:18.817Z,7.63
2018-10-17T20:45:47.229Z,6.80
2018-10-17T20:48:15.688Z,7.33
2018-10-17T20:50:44.256Z,7.33
2018-10-17T20:53:12.717Z,6.87
2018-10-17T20:55:41.126Z,7.63
2018-10-17T20:58:09.661Z,7.10
2018-10-17T21:00:37.992Z,7.80
2018-10-17T21:03:06.550Z,7.40
2018-10-17T21:05:34.972Z,7.27
2018-10-17T21:08:03.525Z,7.87
2018-10-17T21:10:32.093Z,7.57
2018-10-17T21:13:00.725Z,6.57
2018-10-17T21:15:29.844Z,6.70
2018-10-17T21:17:58.289Z,6.77
2018-10-17T21:20:26.787Z,7.90
2018-10-17T21:22:55.205Z,6.13
2018-10-17T21:25:24.020Z,6.87
2018-10-17T21:27:52.445Z,6.60
2018-10-17T21:30:21.132Z,6.77
2018-10-17T21:32:49.555Z,6.33
2018-10-17T21:35:18.005Z,6.83
2018-10-17T21:37:46.652Z,6.80
2018-10-17T21:40:15.168Z,6.70
2018-10-17T21:42:43.601Z,6.57
2018-10-17T21:45:12.047Z,6.03
2018-10-17T21:47:40.496Z,6.93
2018-10-17T21:50:09.018Z,6.50
2018-10-17T21:52:37.397Z,7.13
2018-10-17T21:55:06.022Z,6.63
2018-10-17T21:57:34.500Z,6.60
2018-10-17T22:00:02.950Z,6.77
2018-10-17T22:02:31.436Z,7.87
2018-10-17T22:04:59.869Z,6.23
2018-10-17T22:07:28.325Z,7.63
2018-10-17T22:09:56.824Z,7.37
2018-10-17T22:12:25.385Z,6.07
2018-10-17T22:14:53.814Z,7.60
2018-10-17T22:17:28.801Z,6.57
2018-10-17T22:19:57.510Z,7.97
2018-10-17T22:22:26.570Z,6.63
2018-10-17T22:24:55.843Z,6.50
2018-10-17T22:27:24.371Z,7.10
2018-10-17T22:29:53.252Z,7.00
2018-10-17T22:32:21.730Z,7.87
2018-10-17T22:34:50.177Z,6.77
2018-10-17T22:37:18.634Z,6.80
2018-10-17T22:39:47.203Z,6.37
2018-10-17T22:42:15.613Z,6.07
2018-10-17T22:44:44.037Z,6.87
2018-10-17T22:47:12.433Z,7.43
2018-10-17T22:49:40.881Z,6.57
2018-10-17T22:52:09.285Z,6.17
2018-10-17T22:54:37.737Z,6.93
2018-10-17T22:57:06.201Z,6.47
2018-10-17T22:59:34.630Z,6.87
2018-10-17T23:02:03.170Z,7.03
2018-10-17T23:04:31.617Z,6.97
2018-10-17T23:07:00.121Z,7.43
2018-10-17T23:09:28.557Z,7.67
2018-10-17T23:11:56.953Z,7.50
2018-10-17T23:14:25.621Z,7.97
2018-10-17T23:16:54.048Z,7.83
2018-10-17T23:19:22.717Z,8.17
2018-10-17T23:21:51.189Z,7.27
2018-10-17T23:24:19.758Z,7.00
2018-10-17T23:26:48.201Z,7.80
2018-10-17T23:29:16.657Z,8.90
2018-10-17T23:31:45.065Z,6.97
2018-10-17T23:34:13.529Z,7.20
2018-10-17T23:36:41.926Z,7.13
2018-10-17T23:39:10.558Z,7.83
2018-10-17T23:41:39.721Z,8.13
2018-10-17T23:44:08.202Z,7.73
2018-10-17T23:46:36.644Z,9.47
2018-10-17T23:49:05.311Z,7.50
2018-10-17T23:51:33.822Z,7.80
2018-10-17T23:54:02.364Z,9.00
2018-10-17T23:56:30.799Z,8.83
2018-10-17T23:58:59.254Z,8.80
